EDT,Max TemperatureF,Mean TemperatureF,Min TemperatureF,Max Dew PointF,MeanDew PointF,Min DewpointF,Max Humidity, Mean Humidity, Min Humidity, Max Sea Level PressureIn, Mean Sea Level PressureIn, Min Sea Level PressureIn, Max VisibilityMiles, Mean VisibilityMiles, Min VisibilityMiles, Max Wind SpeedMPH, Mean Wind SpeedMPH, Max Gust SpeedMPH,PrecipitationIn, CloudCover, Events, WindDirDegrees
2012-10-1,76,70,63,66,61,57,87,71,54,29.96,29.93,29.90,10,10,10,12,5,13,T,7,Rain,70
2012-10-2,84,78,72,76,74,68,88,81,74,30.00,29.93,29.88,10,10,7,16,8,21,0.11,5,Rain,165
2012-10-3,90,83,76,75,73,71,88,74,59,30.15,30.08,30.00,10,10,9,14,7,24,0.01,4,Rain,195
2012-10-4,88,79,69,72,67,61,87,64,40,30.20,30.15,30.11,10,9,4,20,8,23,0.00,1,,246
2012-10-5,83,73,62,64,60,55,87,64,40,30.14,30.10,30.03,10,9,4,12,4,14,0.00,0,,42
2012-10-6,87,75,62,65,61,59,90,66,42,30.02,29.95,29.87,10,8,2,16,7,40,0.00,2,,210
2012-10-7,72,65,57,59,56,52,84,73,61,30.13,30.03,29.98,10,10,5,22,12,28,0.06,7,Rain,2
2012-10-8,65,62,58,61,56,48,87,74,60,30.22,30.13,30.07,10,7,2,26,13,32,1.58,8,Rain-Thunderstorm,14
2012-10-9,66,64,61,61,59,56,90,84,78,30.09,30.06,30.04,10,7,2,16,9,20,0.01,8,Rain,335
2012-10-10,72,66,59,59,56,51,90,70,49,30.06,30.02,29.94,10,5,0,16,8,22,0.01,6,Fog-Rain,268
2012-10-11,70,59,47,52,45,39,83,58,33,30.29,30.22,30.07,10,10,10,14,6,26,0.00,0,,340
2012-10-12,75,61,46,54,47,40,93,62,31,30.36,30.22,30.15,10,10,5,18,8,23,0.00,0,,312
2012-10-13,70,60,50,47,44,40,89,66,42,30.47,30.41,30.37,10,10,10,15,7,20,0.00,0,,39
2012-10-14,82,65,48,60,51,46,93,64,35,30.35,30.24,30.06,10,7,0,14,5,36,0.00,0,Fog,181
2012-10-15,82,71,59,64,61,56,84,66,47,30.04,29.85,29.69,10,10,4,21,7,25,0.06,2,Rain,217
2012-10-16,71,59,47,61,48,43,86,61,35,29.93,29.87,29.76,10,10,10,23,8,28,0.00,1,,333
2012-10-17,72,60,47,54,48,44,93,67,41,30.03,29.98,29.94,10,8,2,10,3,14,0.00,0,,156
2012-10-18,82,67,52,66,58,50,86,64,42,29.98,29.92,29.82,10,10,6,13,6,16,0.03,4,Rain,117
2012-10-19,77,70,62,68,66,60,90,80,69,29.80,29.77,29.71,10,8,0,14,6,20,0.06,5,Fog-Rain,185
2012-10-20,79,65,50,52,46,40,83,54,25,29.91,29.81,29.76,10,10,10,17,8,21,0.00,0,,239
2012-10-21,71,59,46,47,44,40,86,60,33,30.14,30.06,29.92,10,10,10,16,6,21,0.00,0,,328
2012-10-22,74,59,43,49,45,41,89,60,31,30.22,30.17,30.14,10,10,10,10,3,14,0.00,0,,349
2012-10-23,80,64,47,54,49,43,93,62,30,30.20,30.15,30.12,10,8,2,10,5,13,0.00,0,,201
2012-10-24,85,70,55,62,55,51,87,60,32,30.19,30.14,30.09,10,10,10,14,6,16,0.00,0,,222
2012-10-25,81,68,55,64,59,52,87,68,48,30.19,30.14,30.12,10,6,0,13,5,20,0.00,2,Fog,43
2012-10-26,76,72,68,66,65,63,87,78,69,30.12,30.04,29.92,10,8,4,18,10,24,0.04,5,Rain,28
2012-10-27,71,69,66,64,62,61,84,76,68,29.91,29.72,29.62,10,10,5,31,23,43,0.44,6,Rain,29
2012-10-28,66,64,61,61,58,56,90,82,73,29.59,29.46,29.33,10,6,2,39,27,52,2.06,8,Rain,8
2012-10-29,62,54,46,56,49,40,89,84,78,29.33,29.22,29.13,10,8,3,32,22,43,0.96,8,Rain,283
2012-10-30,53,50,46,40,39,36,76,65,54,29.58,29.40,29.21,10,10,7,28,16,38,T,7,Rain,225
2012-10-31,59,52,45,41,38,36,71,59,47,29.74,29.66,29.58,10,10,10,17,10,22,0.00,2,,238